Terminal Aerodrome Forecast
Issued by NWS Boston, MA

Current Version | Previous Version | Text Only | Print | Product List | Glossary On
Versions: 1 2 3 4 5 6 7 8 9 10 11 12 13 14 15 16 17 18 19 20 21 22
000 FTUS41 KBOX 140535 TAFPVD TAF KPVD 140535Z 1406/1506 26009KT P6SM BKN100 FM140900 26005KT P6SM VCSH OVC040 FM141100 32005KT 3SM -SN OVC025 FM141200 34004KT 2SM -SN OVC020 FM141400 34005KT P6SM OVC030 FM141500 35010KT P6SM BKN040 FM141900 32010G18KT P6SM SCT250=

USA.gov is the U.S. government's official web portal to all federal, state and local government web resources and services.